createdAt,value
2017-05-04T00:01:03.506Z,5.50
2017-05-04T00:03:30.733Z,5.50
2017-05-04T00:05:59.253Z,5.60
2017-05-04T00:08:26.865Z,5.80
2017-05-04T00:10:54.005Z,5.80
2017-05-04T00:13:22.237Z,5.70
2017-05-04T00:16:07.301Z,5.70
2017-05-04T00:18:35.461Z,5.60
2017-05-04T00:21:02.606Z,5.70
2017-05-04T00:23:30.860Z,5.70
2017-05-04T00:25:59.086Z,5.80
2017-05-04T00:28:26.285Z,5.90
2017-05-04T00:30:53.461Z,6.00
2017-05-04T00:33:20.595Z,6.00
2017-05-04T00:35:48.099Z,6.00
2017-05-04T00:38:15.297Z,6.10
2017-05-04T00:40:44.186Z,6.10
2017-05-04T00:43:12.353Z,6.00
2017-05-04T00:45:39.490Z,6.00
2017-05-04T00:48:08.385Z,6.00
2017-05-04T00:50:36.586Z,6.00
2017-05-04T00:53:03.726Z,6.00
2017-05-04T00:55:30.902Z,6.00
2017-05-04T00:57:58.358Z,6.10
2017-05-04T01:00:25.530Z,6.20
2017-05-04T01:02:53.710Z,6.20
2017-05-04T01:05:21.247Z,6.20
2017-05-04T01:07:49.184Z,6.20
2017-05-04T01:10:16.358Z,6.30
2017-05-04T01:12:43.822Z,6.30
2017-05-04T01:15:10.949Z,6.30
2017-05-04T01:17:38.089Z,6.40
2017-05-04T01:20:05.584Z,6.40
2017-05-04T01:22:32.713Z,6.40
2017-05-04T01:24:59.870Z,6.40
2017-05-04T01:27:30.041Z,6.30
2017-05-04T01:29:57.238Z,6.30
2017-05-04T01:32:25.476Z,6.30
2017-05-04T01:34:52.980Z,6.30
2017-05-04T01:37:20.145Z,6.30
2017-05-04T01:39:47.303Z,6.30
2017-05-04T01:42:15.528Z,6.30
2017-05-04T01:44:42.677Z,6.20
2017-05-04T01:47:09.817Z,6.20
2017-05-04T01:49:37.306Z,6.20
2017-05-04T01:52:04.457Z,6.20
2017-05-04T01:54:32.632Z,6.20
2017-05-04T01:57:00.778Z,6.30
2017-05-04T01:59:27.940Z,6.30
2017-05-04T02:01:55.094Z,6.30
2017-05-04T02:04:22.569Z,6.30
2017-05-04T02:06:49.738Z,6.30
2017-05-04T02:09:18.684Z,6.20
2017-05-04T02:11:46.882Z,6.30
2017-05-04T02:14:14.018Z,6.30
2017-05-04T02:16:41.190Z,6.20
2017-05-04T02:19:08.634Z,6.20
2017-05-04T02:21:35.773Z,6.20
2017-05-04T02:24:03.969Z,6.20
2017-05-04T02:26:31.501Z,6.10
2017-05-04T02:28:59.938Z,6.10
2017-05-04T02:31:27.091Z,6.00
2017-05-04T02:33:55.253Z,6.00
2017-05-04T02:36:23.155Z,6.00
2017-05-04T02:38:51.516Z,6.00
2017-05-04T02:41:18.752Z,6.00
2017-05-04T02:43:45.894Z,5.90
2017-05-04T02:46:14.298Z,5.90
2017-05-04T02:48:41.452Z,5.90
2017-05-04T02:51:08.608Z,5.90
2017-05-04T02:53:36.090Z,5.90
2017-05-04T02:56:03.232Z,5.90
2017-05-04T02:58:30.377Z,5.80
2017-05-04T03:00:58.829Z,5.80
2017-05-04T03:03:25.970Z,5.80
2017-05-04T03:05:53.150Z,5.90
2017-05-04T03:08:22.194Z,5.90
2017-05-04T03:10:50.074Z,5.80
2017-05-04T03:13:17.956Z,5.80
2017-05-04T03:15:45.463Z,5.80
2017-05-04T03:18:13.357Z,5.70
2017-05-04T03:20:41.233Z,5.70
2017-05-04T03:23:12.481Z,5.60
2017-05-04T03:25:39.650Z,5.60
2017-05-04T03:28:07.623Z,5.60
2017-05-04T03:30:35.942Z,5.60
2017-05-04T03:33:03.087Z,5.60
2017-05-04T03:35:30.236Z,5.60
2017-05-04T03:37:57.786Z,5.70
2017-05-04T03:40:24.930Z,5.70
2017-05-04T03:42:52.078Z,5.70
2017-05-04T03:45:19.533Z,5.70
2017-05-04T03:47:46.703Z,5.70
2017-05-04T03:50:13.874Z,5.80
2017-05-04T03:52:42.110Z,5.80
2017-05-04T03:55:09.256Z,5.80
2017-05-04T03:57:36.406Z,5.90
2017-05-04T04:00:03.861Z,5.90
2017-05-04T04:02:32.035Z,5.90
2017-05-04T04:04:59.191Z,5.90
2017-05-04T04:07:26.642Z,6.00
2017-05-04T04:09:54.802Z,6.00
2017-05-04T04:12:21.947Z,5.90
2017-05-04T04:14:49.425Z,6.00
2017-05-04T04:17:16.550Z,6.00
2017-05-04T04:19:43.690Z,6.00
2017-05-04T04:22:11.902Z,6.00
2017-05-04T04:24:39.762Z,6.10
2017-05-04T04:27:07.798Z,6.10
2017-05-04T04:29:35.284Z,6.00
2017-05-04T04:32:02.421Z,6.10
2017-05-04T04:34:29.612Z,6.10
2017-05-04T04:36:56.733Z,6.00
2017-05-04T04:39:23.888Z,6.10
2017-05-04T04:41:51.329Z,6.10
2017-05-04T04:44:18.481Z,6.20
2017-05-04T04:46:45.615Z,6.20
2017-05-04T04:49:14.109Z,6.30
2017-05-04T04:51:41.254Z,6.40
2017-05-04T04:54:08.414Z,6.50
2017-05-04T04:56:35.869Z,6.50
2017-05-04T04:59:03.017Z,6.50
2017-05-04T05:01:30.162Z,6.60
2017-05-04T05:03:57.623Z,6.60
2017-05-04T05:06:25.769Z,6.70
2017-05-04T05:08:52.894Z,6.70
2017-05-04T05:11:21.086Z,6.70
2017-05-04T05:13:48.238Z,6.80
2017-05-04T05:16:15.383Z,6.90
2017-05-04T05:18:42.878Z,6.90
2017-05-04T05:21:10.013Z,7.00
2017-05-04T05:23:37.162Z,7.00
2017-05-04T05:26:05.318Z,7.10
2017-05-04T05:28:32.522Z,7.10
2017-05-04T05:31:01.279Z,7.00
2017-05-04T05:33:29.757Z,7.20
2017-05-04T05:35:57.186Z,7.30
2017-05-04T05:38:24.370Z,7.40
2017-05-04T05:40:54.386Z,7.50
2017-05-04T05:43:21.529Z,7.70
2017-05-04T05:45:48.653Z,7.70
2017-05-04T05:48:17.333Z,7.70
2017-05-04T05:50:44.726Z,7.70
2017-05-04T05:53:11.869Z,7.90
2017-05-04T05:55:39.530Z,8.10
2017-05-04T05:58:06.697Z,8.20
2017-05-04T06:00:33.833Z,8.30
2017-05-04T06:03:02.040Z,8.40
2017-05-04T06:05:29.928Z,8.60
2017-05-04T06:07:58.990Z,8.70
2017-05-04T06:10:30.907Z,8.50
2017-05-04T06:12:59.057Z,8.60
2017-05-04T06:15:26.190Z,8.60
2017-05-04T06:17:55.853Z,8.70
2017-05-04T06:20:22.985Z,8.80
2017-05-04T06:22:52.207Z,8.60
2017-05-04T06:28:04.135Z,8.80
2017-05-04T06:30:39.230Z,9.00
2017-05-04T06:33:10.984Z,9.10
2017-05-04T06:35:38.125Z,9.30
2017-05-04T06:38:05.614Z,9.30
2017-05-04T06:40:32.751Z,9.20
2017-05-04T06:42:59.895Z,9.30
2017-05-04T06:45:28.125Z,9.20
2017-05-04T06:47:55.994Z,9.30
2017-05-04T06:50:24.131Z,9.20
2017-05-04T06:52:59.073Z,9.40
2017-05-04T06:55:31.315Z,9.00
2017-05-04T06:57:59.714Z,9.10
2017-05-04T07:00:26.853Z,9.60
2017-05-04T07:02:54.020Z,9.90
2017-05-04T07:05:21.461Z,10.20
2017-05-04T07:07:48.622Z,10.00
2017-05-04T07:10:15.754Z,10.00
2017-05-04T07:12:44.233Z,9.60
2017-05-04T07:15:11.373Z,9.70
2017-05-04T07:17:38.511Z,10.00
2017-05-04T07:20:06.013Z,10.10
2017-05-04T07:22:33.223Z,10.40
2017-05-04T07:25:00.360Z,10.50
2017-05-04T07:27:27.846Z,11.10
2017-05-04T07:29:54.981Z,11.50
2017-05-04T07:32:22.130Z,11.70
2017-05-04T07:34:50.397Z,12.00
2017-05-04T07:37:17.553Z,12.20
2017-05-04T07:39:44.702Z,11.90
2017-05-04T07:42:13.205Z,11.60
2017-05-04T07:44:40.330Z,11.90
2017-05-04T07:47:07.479Z,11.60
2017-05-04T07:49:35.982Z,11.80
2017-05-04T07:52:03.123Z,12.30
2017-05-04T07:54:31.262Z,12.10
2017-05-04T07:56:58.866Z,12.70
2017-05-04T07:59:26.018Z,12.50
2017-05-04T08:01:53.166Z,12.70
2017-05-04T08:04:21.895Z,13.30
2017-05-04T08:06:49.093Z,13.70
2017-05-04T08:09:18.365Z,13.80
2017-05-04T08:11:45.869Z,14.20
2017-05-04T08:14:13.021Z,13.60
2017-05-04T08:16:40.161Z,13.70
2017-05-04T08:19:07.620Z,13.50
2017-05-04T08:21:34.757Z,13.40
2017-05-04T08:24:04.018Z,13.50
2017-05-04T08:26:32.532Z,13.50
2017-05-04T08:28:59.663Z,13.50
2017-05-04T08:31:26.870Z,13.80
2017-05-04T08:33:54.390Z,14.60
2017-05-04T08:36:22.558Z,14.70
2017-05-04T08:38:49.709Z,14.60
2017-05-04T08:41:17.178Z,14.30
2017-05-04T08:43:44.306Z,13.90
2017-05-04T08:46:11.449Z,14.10
2017-05-04T08:48:39.855Z,13.70
2017-05-04T08:51:07.009Z,13.70
2017-05-04T08:53:34.163Z,13.90
2017-05-04T08:56:01.602Z,13.70
2017-05-04T08:58:28.757Z,14.10
2017-05-04T09:00:55.901Z,14.60
2017-05-04T09:03:24.176Z,14.50
2017-05-04T09:05:51.325Z,14.20
2017-05-04T09:08:18.482Z,14.20
2017-05-04T09:10:45.942Z,14.40
2017-05-04T09:13:13.090Z,15.00
2017-05-04T09:15:40.209Z,14.90
2017-05-04T09:18:07.694Z,15.00
2017-05-04T09:20:34.836Z,15.00
2017-05-04T09:23:02.130Z,15.50
2017-05-04T09:25:31.220Z,14.90
2017-05-04T09:27:58.389Z,14.80
2017-05-04T09:30:26.257Z,15.80
2017-05-04T09:32:53.754Z,15.30
2017-05-04T09:35:20.899Z,15.20
2017-05-04T09:37:48.036Z,15.20
2017-05-04T09:40:15.614Z,14.90
2017-05-04T09:42:42.755Z,14.70
2017-05-04T09:45:09.915Z,15.00
2017-05-04T09:47:38.070Z,14.70
2017-05-04T09:50:05.271Z,14.40
2017-05-04T09:52:33.169Z,14.40
2017-05-04T09:55:00.867Z,14.40
2017-05-04T09:57:28.777Z,14.60
2017-05-04T09:59:56.638Z,14.40
2017-05-04T10:02:25.086Z,13.90
2017-05-04T10:04:52.232Z,13.60
2017-05-04T10:07:20.373Z,13.10
2017-05-04T10:09:47.865Z,12.70
2017-05-04T10:12:14.993Z,12.40
2017-05-04T10:14:42.146Z,12.30
2017-05-04T10:17:09.621Z,12.10
2017-05-04T10:19:36.763Z,12.20
2017-05-04T10:22:04.133Z,12.70
2017-05-04T10:24:31.670Z,12.90
2017-05-04T10:26:58.802Z,13.10
2017-05-04T10:29:25.921Z,13.00
2017-05-04T10:31:54.141Z,13.50
2017-05-04T10:34:21.291Z,14.10
2017-05-04T10:36:48.432Z,14.10
2017-05-04T10:39:15.897Z,14.30
2017-05-04T10:41:43.045Z,14.60
2017-05-04T10:44:10.179Z,14.60
2017-05-04T10:46:38.506Z,14.50
2017-05-04T10:49:06.397Z,14.70
2017-05-04T10:51:34.561Z,14.30
2017-05-04T10:54:03.587Z,14.40
2017-05-04T10:56:30.722Z,14.60
2017-05-04T10:58:57.857Z,14.50
2017-05-04T11:01:26.082Z,14.60
2017-05-04T11:03:53.210Z,14.40
2017-05-04T11:06:20.358Z,14.00
2017-05-04T11:08:48.609Z,13.90
2017-05-04T11:11:15.757Z,13.90
2017-05-04T11:13:43.625Z,13.90
2017-05-04T11:16:11.126Z,13.70
2017-05-04T11:18:38.282Z,13.70
2017-05-04T11:21:05.405Z,13.80
2017-05-04T11:23:33.605Z,13.70
2017-05-04T11:26:00.880Z,13.60
2017-05-04T11:28:28.178Z,13.50
2017-05-04T11:30:55.769Z,13.30
2017-05-04T11:33:22.895Z,13.60
2017-05-04T11:35:50.029Z,13.60
2017-05-04T11:38:17.517Z,13.50
2017-05-04T11:40:44.642Z,14.00
2017-05-04T11:43:11.781Z,14.00
2017-05-04T11:45:39.971Z,14.30
2017-05-04T11:48:07.211Z,14.40
2017-05-04T11:50:34.346Z,14.10
2017-05-04T11:53:01.843Z,14.00
2017-05-04T11:55:28.987Z,14.00
2017-05-04T11:57:57.179Z,13.90
2017-05-04T12:00:24.622Z,13.70
2017-05-04T12:02:51.784Z,13.60
2017-05-04T12:05:18.925Z,13.40
2017-05-04T12:07:47.404Z,13.60
2017-05-04T12:10:15.538Z,13.60
2017-05-04T12:12:42.665Z,13.70
2017-05-04T12:15:11.625Z,13.60
2017-05-04T12:17:38.749Z,13.90
2017-05-04T12:20:05.899Z,14.20
2017-05-04T12:22:33.369Z,15.00
2017-05-04T12:25:00.491Z,15.30
2017-05-04T12:27:28.837Z,15.80
2017-05-04T12:29:56.357Z,15.80
2017-05-04T12:32:23.505Z,17.70
2017-05-04T12:34:50.647Z,18.70
2017-05-04T12:37:18.105Z,17.70
2017-05-04T12:39:45.238Z,17.60
2017-05-04T12:42:12.401Z,18.50
2017-05-04T12:44:39.876Z,18.20
2017-05-04T12:47:07.037Z,17.20
2017-05-04T12:49:34.189Z,16.70
2017-05-04T12:52:01.717Z,16.60
2017-05-04T12:54:28.866Z,16.80
2017-05-04T12:56:56.007Z,18.10
2017-05-04T12:59:23.470Z,19.50
2017-05-04T13:01:50.594Z,19.50
2017-05-04T13:04:17.748Z,19.00
2017-05-04T13:06:46.022Z,19.20
2017-05-04T13:09:13.153Z,18.60
2017-05-04T13:11:40.289Z,20.20
2017-05-04T13:14:08.535Z,20.50
2017-05-04T13:16:35.665Z,20.50
2017-05-04T13:19:09.124Z,19.60
2017-05-04T13:21:37.653Z,18.40
2017-05-04T13:24:04.790Z,17.30
2017-05-04T13:26:31.925Z,17.70
2017-05-04T13:29:01.350Z,16.40
2017-05-04T13:31:29.482Z,16.00
2017-05-04T13:33:56.631Z,16.00
2017-05-04T13:36:24.050Z,15.50
2017-05-04T13:38:51.205Z,15.40
2017-05-04T13:41:18.348Z,15.40
2017-05-04T13:43:46.634Z,15.40
2017-05-04T13:46:13.774Z,15.10
2017-05-04T13:48:40.902Z,14.80
2017-05-04T13:51:09.379Z,14.20
2017-05-04T13:53:36.521Z,14.20
2017-05-04T13:56:03.661Z,14.00
2017-05-04T13:58:31.151Z,13.80
2017-05-04T14:00:58.325Z,13.80
2017-05-04T14:03:26.238Z,13.70
2017-05-04T14:05:53.708Z,13.50
2017-05-04T14:08:20.872Z,13.40
2017-05-04T14:10:48.014Z,13.20
2017-05-04T14:13:15.461Z,13.10
2017-05-04T14:15:42.590Z,12.90
2017-05-04T14:18:09.742Z,12.70
2017-05-04T14:20:38.042Z,12.70
2017-05-04T14:23:05.179Z,12.50
2017-05-04T14:25:33.377Z,12.30
2017-05-04T14:28:04.922Z,12.20
2017-05-04T14:30:33.377Z,12.10
2017-05-04T14:33:00.509Z,12.10
2017-05-04T14:35:28.833Z,12.00
2017-05-04T14:37:55.974Z,11.90
2017-05-04T14:40:23.144Z,11.80
2017-05-04T14:42:50.675Z,11.70
2017-05-04T14:45:17.851Z,11.70
2017-05-04T14:47:46.009Z,11.60
2017-05-04T14:50:13.458Z,11.50
2017-05-04T14:52:40.602Z,11.30
2017-05-04T14:55:08.958Z,11.10
2017-05-04T14:57:36.441Z,11.00
2017-05-04T15:00:03.585Z,10.50
2017-05-04T15:02:31.096Z,9.60
2017-05-04T15:04:59.738Z,9.20
2017-05-04T15:07:26.885Z,9.10
2017-05-04T15:09:54.033Z,9.00
2017-05-04T15:12:21.498Z,9.10
2017-05-04T15:14:48.648Z,9.20
2017-05-04T15:17:15.777Z,8.90
2017-05-04T15:19:43.241Z,8.90
2017-05-04T15:22:10.390Z,9.10
2017-05-04T15:24:38.525Z,8.90
2017-05-04T15:27:06.337Z,8.90
2017-05-04T15:29:35.381Z,8.80
2017-05-04T15:32:03.571Z,8.80
2017-05-04T15:34:30.961Z,9.00
2017-05-04T15:36:58.082Z,9.00
2017-05-04T15:39:25.223Z,8.90
2017-05-04T15:41:52.705Z,8.90
2017-05-04T15:44:19.853Z,8.80
2017-05-04T15:46:46.982Z,8.80
2017-05-04T15:49:14.389Z,8.80
2017-05-04T15:51:41.538Z,8.80
2017-05-04T15:54:08.673Z,8.90
2017-05-04T15:56:36.913Z,8.70
2017-05-04T15:59:04.059Z,8.50
2017-05-04T16:01:31.197Z,8.50
2017-05-04T16:03:58.683Z,8.50
2017-05-04T16:06:25.831Z,8.50
2017-05-04T16:08:52.998Z,8.60
2017-05-04T16:11:21.171Z,8.50
2017-05-04T16:13:48.318Z,8.50
2017-05-04T16:16:15.471Z,8.40
2017-05-04T16:18:42.906Z,8.50
2017-05-04T16:21:10.848Z,8.40
2017-05-04T16:23:38.788Z,8.50
2017-05-04T16:26:06.661Z,8.40
2017-05-04T16:28:33.790Z,8.40
2017-05-04T16:31:02.242Z,8.70
2017-05-04T16:33:29.374Z,8.50
2017-05-04T16:35:57.513Z,8.50
2017-05-04T16:38:26.558Z,8.50
2017-05-04T16:40:53.711Z,8.60
2017-05-04T16:43:20.841Z,8.60
2017-05-04T16:45:48.312Z,8.40
2017-05-04T16:48:15.453Z,8.40
2017-05-04T16:50:43.654Z,8.40
2017-05-04T16:53:11.119Z,8.40
2017-05-04T16:55:39.005Z,8.50
2017-05-04T16:58:06.157Z,8.50
2017-05-04T17:00:33.657Z,8.40
2017-05-04T17:03:00.793Z,8.40
2017-05-04T17:05:27.927Z,8.40
2017-05-04T17:07:55.349Z,8.40
2017-05-04T17:10:23.517Z,8.40
2017-05-04T17:12:51.398Z,8.30
2017-05-04T17:15:19.625Z,8.30
2017-05-04T17:17:46.777Z,8.40
2017-05-04T17:20:13.912Z,8.40
2017-05-04T17:22:41.383Z,8.40
2017-05-04T17:25:08.681Z,8.40
2017-05-04T17:27:35.902Z,8.40
2017-05-04T17:30:04.162Z,8.30
2017-05-04T17:32:31.298Z,8.30
2017-05-04T17:34:58.445Z,8.20
2017-05-04T17:37:25.915Z,8.10
2017-05-04T17:39:53.049Z,8.10
2017-05-04T17:42:20.209Z,8.10
2017-05-04T17:44:47.810Z,8.10
2017-05-04T17:47:15.689Z,8.10
2017-05-04T17:49:43.629Z,8.00
2017-05-04T17:52:11.168Z,8.00
2017-05-04T17:54:38.326Z,8.00
2017-05-04T17:57:05.473Z,8.00
2017-05-04T17:59:33.026Z,8.10
2017-05-04T18:02:00.161Z,8.00
2017-05-04T18:04:27.302Z,8.00
2017-05-04T18:06:55.698Z,8.00
2017-05-04T18:09:22.858Z,8.00
2017-05-04T18:11:50.013Z,8.00
2017-05-04T18:14:17.461Z,8.00
2017-05-04T18:16:45.342Z,7.90
2017-05-04T18:19:12.484Z,7.90
2017-05-04T18:21:39.893Z,7.90
2017-05-04T18:26:42.491Z,7.90
2017-05-04T18:29:09.705Z,7.90
2017-05-04T18:31:36.910Z,7.90
2017-05-04T18:34:05.296Z,8.00
2017-05-04T18:36:32.438Z,7.90
2017-05-04T18:38:59.586Z,8.00
2017-05-04T18:41:27.049Z,8.00
2017-05-04T18:43:54.183Z,7.90
2017-05-04T18:46:22.261Z,7.90
2017-05-04T18:48:50.744Z,7.90
2017-05-04T18:51:18.785Z,7.90
2017-05-04T18:53:45.950Z,7.90
2017-05-04T18:56:14.286Z,7.90
2017-05-04T18:58:42.158Z,7.80
2017-05-04T19:01:10.034Z,7.80
2017-05-04T19:03:37.543Z,7.80
2017-05-04T19:06:05.690Z,7.80
2017-05-04T19:08:32.853Z,7.70
2017-05-04T19:11:00.319Z,7.70
2017-05-04T19:13:27.458Z,7.70
2017-05-04T19:15:56.847Z,7.60
2017-05-04T19:18:25.056Z,7.60
2017-05-04T19:20:52.968Z,7.50
2017-05-04T19:23:22.468Z,7.50
2017-05-04T19:25:52.049Z,7.50
2017-05-04T19:28:25.330Z,7.50
2017-05-04T19:30:53.586Z,7.40
2017-05-04T19:33:20.729Z,7.40
2017-05-04T19:35:49.894Z,7.40
2017-05-04T19:38:17.398Z,7.30
2017-05-04T19:40:44.541Z,7.30
2017-05-04T19:43:11.677Z,7.30
2017-05-04T19:45:39.153Z,7.30
2017-05-04T19:48:06.302Z,7.20
2017-05-04T19:50:33.438Z,7.20
2017-05-04T19:53:00.906Z,7.20
2017-05-04T19:55:28.058Z,7.20
2017-05-04T19:57:55.195Z,7.20
2017-05-04T20:00:22.649Z,7.20
2017-05-04T20:02:49.793Z,7.20
2017-05-04T20:05:16.929Z,7.20
2017-05-04T20:07:44.406Z,7.10
2017-05-04T20:10:12.566Z,7.20
2017-05-04T20:12:39.724Z,7.10
2017-05-04T20:15:08.124Z,7.10
2017-05-04T20:17:35.284Z,7.10
2017-05-04T20:20:02.429Z,7.10
2017-05-04T20:22:30.315Z,7.10
2017-05-04T20:24:57.650Z,7.10
2017-05-04T20:27:24.854Z,7.10
2017-05-04T20:29:52.287Z,7.10
2017-05-04T20:32:20.167Z,7.10
2017-05-04T20:34:47.329Z,7.20
2017-05-04T20:37:15.537Z,7.20
2017-05-04T20:39:42.674Z,7.20
2017-05-04T20:42:09.877Z,7.20
2017-05-04T20:44:37.395Z,7.10
2017-05-04T20:47:04.542Z,7.20
2017-05-04T20:49:31.699Z,7.20
2017-05-04T20:51:59.145Z,7.10
2017-05-04T20:54:26.297Z,7.10
2017-05-04T20:56:54.237Z,7.10
2017-05-04T20:59:21.407Z,7.10
2017-05-04T21:01:48.553Z,7.10
2017-05-04T21:04:15.730Z,7.10
2017-05-04T21:06:42.869Z,7.10
2017-05-04T21:09:10.426Z,7.10
2017-05-04T21:11:37.565Z,7.10
2017-05-04T21:14:04.703Z,7.10
2017-05-04T21:16:32.166Z,7.20
2017-05-04T21:19:03.234Z,7.10
2017-05-04T21:21:31.389Z,7.20
2017-05-04T21:23:59.578Z,7.10
2017-05-04T21:26:27.466Z,7.10
2017-05-04T21:28:55.674Z,7.10
2017-05-04T21:31:23.128Z,7.20
2017-05-04T21:33:50.285Z,7.20
2017-05-04T21:36:17.493Z,7.10
2017-05-04T21:38:45.720Z,7.10
2017-05-04T21:41:13.869Z,7.10
2017-05-04T21:43:40.998Z,7.20
2017-05-04T21:46:10.160Z,7.20
2017-05-04T21:48:37.305Z,7.20
2017-05-04T21:51:04.428Z,7.20
2017-05-04T21:53:31.899Z,7.20
2017-05-04T21:58:33.165Z,7.20
2017-05-04T22:01:01.389Z,7.20
2017-05-04T22:03:28.526Z,7.20
2017-05-04T22:05:57.497Z,7.20
2017-05-04T22:08:24.643Z,7.20
2017-05-04T22:10:51.773Z,7.20
2017-05-04T22:13:19.225Z,7.20
2017-05-04T22:15:46.357Z,7.20
2017-05-04T22:18:14.570Z,7.20
2017-05-04T22:20:42.011Z,7.10
2017-05-04T22:23:12.859Z,7.20
2017-05-04T22:25:41.670Z,7.10
2017-05-04T22:28:09.183Z,7.10
2017-05-04T22:30:36.323Z,7.10
2017-05-04T22:33:03.453Z,7.10
2017-05-04T22:35:31.637Z,7.10
2017-05-04T22:37:58.794Z,7.00
2017-05-04T22:40:25.946Z,7.00
2017-05-04T22:42:53.416Z,7.00
2017-05-04T22:45:20.557Z,7.00
2017-05-04T22:47:48.717Z,6.90
2017-05-04T22:50:16.149Z,6.90
2017-05-04T22:52:45.033Z,6.90
2017-05-04T22:55:12.933Z,6.90
2017-05-04T22:57:40.419Z,6.90
2017-05-04T23:00:07.585Z,6.90
2017-05-04T23:02:34.770Z,6.80
2017-05-04T23:05:02.186Z,6.80
2017-05-04T23:07:29.321Z,6.80
2017-05-04T23:09:56.489Z,6.80
2017-05-04T23:12:24.642Z,6.80
2017-05-04T23:14:51.781Z,6.80
2017-05-04T23:17:18.949Z,6.80
2017-05-04T23:19:46.394Z,6.80
2017-05-04T23:22:13.541Z,6.80
2017-05-04T23:24:40.698Z,6.80
2017-05-04T23:27:08.246Z,6.80
2017-05-04T23:29:35.393Z,6.80
2017-05-04T23:32:03.070Z,6.80
2017-05-04T23:34:30.514Z,6.80
2017-05-04T23:36:57.646Z,6.80
2017-05-04T23:39:24.791Z,6.70
2017-05-04T23:41:52.281Z,6.80
2017-05-04T23:44:21.215Z,6.70
2017-05-04T23:46:48.404Z,6.70
2017-05-04T23:49:15.879Z,6.80
2017-05-04T23:51:43.018Z,6.70
2017-05-04T23:54:10.187Z,6.80
2017-05-04T23:56:37.623Z,6.70
2017-05-04T23:59:04.757Z,6.70
